Holiday Island, Arkansas
Current Conditions -  °F | °C
As of 6:57 PM on Wednesday 26 Nov 2014 (Local Time) from KROG Reporting Station
Clear Clear  
Wind Chill: 32°   Ceiling: Unl
Heat Index: 40°   Visibility: 10mi
Dew Point: 25°   Wind: 15mph
Humidity: 55%   Direction: 300°WNW
Pressure: 30.21"   Gusts: 25mph
Location:  36.4778°N, 93.7346°W
Report Text: KROG 270057Z 30013G22KT 10SM CLR 04/M04 A3021 RMK AO2 SLP235 T00441039
Loading
Personal Weather Stations






























Interactive Weather Map New forecast layout! Learn more

10-Day Weather Forecast

Advertisements
Track Severe Weather on mobile